createdAt,value
2017-08-24T00:01:26.452Z,77.40
2017-08-24T00:03:54.584Z,77.70
2017-08-24T00:06:22.707Z,77.70
2017-08-24T00:08:50.880Z,77.90
2017-08-24T00:11:19.005Z,78.10
2017-08-24T00:13:47.167Z,78.30
2017-08-24T00:16:15.398Z,78.30
2017-08-24T00:18:43.547Z,78.40
2017-08-24T00:21:11.719Z,78.40
2017-08-24T00:23:39.863Z,78.50
2017-08-24T00:26:07.989Z,78.60
2017-08-24T00:28:36.144Z,78.80
2017-08-24T00:31:04.279Z,79.10
2017-08-24T00:33:32.451Z,79.30
2017-08-24T00:36:00.584Z,79.20
2017-08-24T00:38:28.749Z,79.30
2017-08-24T00:40:56.876Z,79.40
2017-08-24T00:43:24.998Z,79.70
2017-08-24T00:45:53.154Z,79.70
2017-08-24T00:48:21.303Z,79.70
2017-08-24T00:50:49.479Z,80.10
2017-08-24T00:53:17.623Z,80.10
2017-08-24T00:55:45.831Z,80.00
2017-08-24T00:58:13.961Z,80.10
2017-08-24T01:00:42.109Z,80.30
2017-08-24T01:03:10.280Z,80.30
2017-08-24T01:05:38.434Z,80.50
2017-08-24T01:08:06.598Z,80.90
2017-08-24T01:10:34.734Z,81.10
2017-08-24T01:13:02.957Z,81.50
2017-08-24T01:15:31.146Z,81.60
2017-08-24T01:17:59.287Z,81.70
2017-08-24T01:20:27.482Z,81.90
2017-08-24T01:22:55.652Z,81.70
2017-08-24T01:25:23.800Z,81.70
2017-08-24T01:27:51.970Z,81.60
2017-08-24T01:30:20.095Z,81.50
2017-08-24T01:32:48.253Z,81.70
2017-08-24T01:35:16.391Z,81.60
2017-08-24T01:37:44.527Z,81.60
2017-08-24T01:40:12.693Z,81.90
2017-08-24T01:42:40.828Z,81.80
2017-08-24T01:45:08.969Z,81.80
2017-08-24T01:47:37.264Z,81.80
2017-08-24T01:50:05.405Z,81.80
2017-08-24T01:52:33.528Z,81.90
2017-08-24T01:55:01.722Z,81.80
2017-08-24T01:57:29.865Z,81.80
2017-08-24T01:59:58.036Z,81.80
2017-08-24T02:02:26.164Z,81.70
2017-08-24T02:04:54.292Z,81.70
2017-08-24T02:07:22.445Z,81.70
2017-08-24T02:09:50.583Z,81.80
2017-08-24T02:12:18.747Z,81.90
2017-08-24T02:14:46.892Z,82.00
2017-08-24T02:17:15.037Z,82.10
2017-08-24T02:19:43.207Z,82.10
2017-08-24T02:22:11.354Z,82.40
2017-08-24T02:24:39.607Z,82.60
2017-08-24T02:27:07.747Z,82.60
2017-08-24T02:29:35.880Z,82.60
2017-08-24T02:32:04.043Z,82.50
2017-08-24T02:34:32.190Z,82.60
2017-08-24T02:37:00.317Z,82.70
2017-08-24T02:39:28.503Z,82.70
2017-08-24T02:41:56.633Z,82.80
2017-08-24T02:44:24.774Z,82.80
2017-08-24T02:46:52.934Z,82.90
2017-08-24T02:49:21.070Z,83.00
2017-08-24T02:51:49.236Z,82.90
2017-08-24T02:54:17.369Z,82.90
2017-08-24T02:56:45.529Z,83.00
2017-08-24T02:59:13.657Z,83.10
2017-08-24T03:01:41.786Z,83.30
2017-08-24T03:04:09.937Z,83.40
2017-08-24T03:06:38.071Z,83.40
2017-08-24T03:09:06.251Z,83.40
2017-08-24T03:11:34.395Z,83.40
2017-08-24T03:14:02.539Z,83.40
2017-08-24T03:16:30.706Z,83.60
2017-08-24T03:18:58.847Z,83.60
2017-08-24T03:21:26.974Z,83.60
2017-08-24T03:23:55.137Z,83.50
2017-08-24T03:26:23.287Z,83.70
2017-08-24T03:28:51.414Z,84.30
2017-08-24T03:31:19.615Z,83.80
2017-08-24T03:33:47.746Z,83.90
2017-08-24T03:36:15.896Z,83.90
2017-08-24T03:38:44.068Z,84.00
2017-08-24T03:41:12.214Z,84.60
2017-08-24T03:43:40.378Z,84.10
2017-08-24T03:46:08.552Z,84.70
2017-08-24T03:48:36.690Z,84.10
2017-08-24T03:51:04.860Z,84.10
2017-08-24T03:53:33.003Z,84.00
2017-08-24T03:56:01.223Z,84.00
2017-08-24T03:58:29.358Z,84.00
2017-08-24T04:00:57.495Z,84.10
2017-08-24T04:03:25.658Z,84.10
2017-08-24T04:05:53.776Z,84.10
2017-08-24T04:08:21.914Z,84.20
2017-08-24T04:10:50.082Z,84.20
2017-08-24T04:13:18.215Z,84.00
2017-08-24T04:15:46.358Z,84.00
2017-08-24T04:18:14.527Z,84.10
2017-08-24T04:20:42.687Z,84.00
2017-08-24T04:23:10.857Z,84.10
2017-08-24T04:25:39.000Z,84.10
2017-08-24T04:28:07.145Z,84.20
2017-08-24T04:30:35.311Z,84.20
2017-08-24T04:33:03.439Z,84.10
2017-08-24T04:35:31.605Z,84.20
2017-08-24T04:37:59.734Z,84.20
2017-08-24T04:40:27.897Z,84.30
2017-08-24T04:42:56.075Z,84.30
2017-08-24T04:45:24.199Z,84.40
2017-08-24T04:47:52.337Z,84.60
2017-08-24T04:50:20.506Z,84.60
2017-08-24T04:52:48.641Z,84.20
2017-08-24T04:55:16.775Z,84.60
2017-08-24T04:57:44.957Z,84.70
2017-08-24T05:00:13.090Z,84.80
2017-08-24T05:02:41.241Z,84.90
2017-08-24T05:05:09.404Z,84.90
2017-08-24T05:07:37.574Z,84.90
2017-08-24T05:10:05.714Z,84.80
2017-08-24T05:12:33.855Z,84.80
2017-08-24T05:15:02.023Z,84.60
2017-08-24T05:17:30.166Z,84.70
2017-08-24T05:19:58.426Z,84.60
2017-08-24T05:22:26.565Z,84.60
2017-08-24T05:24:54.689Z,84.40
2017-08-24T05:27:22.845Z,84.20
2017-08-24T05:29:50.992Z,84.10
2017-08-24T05:32:19.164Z,84.20
2017-08-24T05:34:47.290Z,84.30
2017-08-24T05:37:15.415Z,84.20
2017-08-24T05:39:43.588Z,83.90
2017-08-24T05:42:11.724Z,83.90
2017-08-24T05:44:39.872Z,83.60
2017-08-24T05:47:08.003Z,83.10
2017-08-24T05:49:36.139Z,83.10
2017-08-24T05:52:04.307Z,82.80
2017-08-24T05:54:32.453Z,82.50
2017-08-24T05:57:00.618Z,82.10
2017-08-24T05:59:28.758Z,82.00
2017-08-24T06:01:56.927Z,82.00
2017-08-24T06:04:25.070Z,81.80
2017-08-24T06:06:53.193Z,81.00
2017-08-24T06:09:21.362Z,79.80
2017-08-24T06:11:49.499Z,79.20
2017-08-24T06:14:17.624Z,78.30
2017-08-24T06:16:45.794Z,78.10
2017-08-24T06:19:13.950Z,78.00
2017-08-24T06:21:42.127Z,78.10
2017-08-24T06:24:10.261Z,77.50
2017-08-24T06:26:38.391Z,76.60
2017-08-24T06:29:06.567Z,76.80
2017-08-24T06:31:34.724Z,75.40
2017-08-24T06:34:02.892Z,74.70
2017-08-24T06:36:31.027Z,74.30
2017-08-24T06:38:59.181Z,73.90
2017-08-24T06:41:27.343Z,73.70
2017-08-24T06:43:55.469Z,72.10
2017-08-24T06:46:23.820Z,71.50
2017-08-24T06:48:51.994Z,71.10
2017-08-24T06:51:20.126Z,70.40
2017-08-24T06:53:48.277Z,70.10
2017-08-24T06:56:16.412Z,71.00
2017-08-24T06:58:44.646Z,69.20
2017-08-24T07:01:12.776Z,68.70
2017-08-24T07:03:40.922Z,68.90
2017-08-24T07:06:09.110Z,68.20
2017-08-24T07:08:37.247Z,67.70
2017-08-24T07:11:05.374Z,67.30
2017-08-24T07:13:33.549Z,66.90
2017-08-24T07:16:01.673Z,66.60
2017-08-24T07:18:29.802Z,66.60
2017-08-24T07:20:57.953Z,66.10
2017-08-24T07:23:26.106Z,65.90
2017-08-24T07:25:54.266Z,65.40
2017-08-24T07:28:22.397Z,65.20
2017-08-24T07:30:50.537Z,64.80
2017-08-24T07:33:18.711Z,65.00
2017-08-24T07:35:46.842Z,64.10
2017-08-24T07:38:14.994Z,64.00
2017-08-24T07:40:43.456Z,63.50
2017-08-24T07:43:11.614Z,62.30
2017-08-24T07:45:39.749Z,61.90
2017-08-24T07:48:07.898Z,62.40
2017-08-24T07:50:36.056Z,61.30
2017-08-24T07:53:04.194Z,61.10
2017-08-24T07:55:32.365Z,61.10
2017-08-24T07:58:00.502Z,60.40
2017-08-24T08:00:28.675Z,60.10
2017-08-24T08:02:56.810Z,60.00
2017-08-24T08:05:24.984Z,60.50
2017-08-24T08:07:53.119Z,60.00
2017-08-24T08:10:21.300Z,59.20
2017-08-24T08:12:49.435Z,58.40
2017-08-24T08:15:17.572Z,58.50
2017-08-24T08:17:45.740Z,58.50
2017-08-24T08:20:13.888Z,57.90
2017-08-24T08:22:42.068Z,58.10
2017-08-24T08:25:10.207Z,58.10
2017-08-24T08:27:38.365Z,57.90
2017-08-24T08:30:06.528Z,57.90
2017-08-24T08:32:34.658Z,57.60
2017-08-24T08:35:02.832Z,56.70
2017-08-24T08:37:30.969Z,56.50
2017-08-24T08:39:59.136Z,56.40
2017-08-24T08:42:27.294Z,55.50
2017-08-24T08:44:55.430Z,55.50
2017-08-24T08:47:23.603Z,55.60
2017-08-24T08:49:51.764Z,55.30
2017-08-24T08:52:19.914Z,55.20
2017-08-24T08:54:48.316Z,55.10
2017-08-24T08:57:16.598Z,54.30
2017-08-24T08:59:44.892Z,54.20
2017-08-24T09:02:13.029Z,53.90
2017-08-24T09:04:41.244Z,53.30
2017-08-24T09:07:09.424Z,54.10
2017-08-24T09:09:38.275Z,53.80
2017-08-24T09:12:06.470Z,53.50
2017-08-24T09:14:34.693Z,53.30
2017-08-24T09:17:02.869Z,53.50
2017-08-24T09:19:31.091Z,53.20
2017-08-24T09:21:59.227Z,52.80
2017-08-24T09:24:27.412Z,52.70
2017-08-24T09:26:55.559Z,53.30
2017-08-24T09:29:24.468Z,52.90
2017-08-24T09:31:52.611Z,52.80
2017-08-24T09:34:20.789Z,53.10
2017-08-24T09:36:48.937Z,53.20
2017-08-24T09:39:17.063Z,51.60
2017-08-24T09:41:46.007Z,52.20
2017-08-24T09:44:14.144Z,52.20
2017-08-24T09:46:42.328Z,51.90
2017-08-24T09:49:10.468Z,51.20
2017-08-24T09:51:38.593Z,51.80
2017-08-24T09:54:06.782Z,51.80
2017-08-24T09:56:34.928Z,51.10
2017-08-24T09:59:03.097Z,50.60
2017-08-24T10:01:31.239Z,51.40
2017-08-24T10:03:59.399Z,51.10
2017-08-24T10:06:27.542Z,49.90
2017-08-24T10:08:55.665Z,50.00
2017-08-24T10:11:23.881Z,51.10
2017-08-24T10:13:52.011Z,50.80
2017-08-24T10:16:20.190Z,51.20
2017-08-24T10:18:48.342Z,50.80
2017-08-24T10:21:16.480Z,50.10
2017-08-24T10:23:44.647Z,50.90
2017-08-24T10:26:12.782Z,50.80
2017-08-24T10:28:41.061Z,50.80
2017-08-24T10:31:09.215Z,49.60
2017-08-24T10:33:37.335Z,50.60
2017-08-24T10:36:05.503Z,50.70
2017-08-24T10:38:33.637Z,51.20
2017-08-24T10:41:01.810Z,50.60
2017-08-24T10:43:29.951Z,51.10
2017-08-24T10:45:58.181Z,51.10
2017-08-24T10:48:26.319Z,51.00
2017-08-24T10:50:54.463Z,50.40
2017-08-24T10:53:22.645Z,51.00
2017-08-24T10:55:50.797Z,51.60
2017-08-24T10:58:18.949Z,52.20
2017-08-24T11:00:47.088Z,51.10
2017-08-24T11:03:15.246Z,52.40
2017-08-24T11:05:43.400Z,52.40
2017-08-24T11:08:11.576Z,52.90
2017-08-24T11:10:39.709Z,52.20
2017-08-24T11:13:07.838Z,53.90
2017-08-24T11:15:36.007Z,54.00
2017-08-24T11:18:04.137Z,54.40
2017-08-24T11:20:32.321Z,54.50
2017-08-24T11:23:00.466Z,55.80
2017-08-24T11:25:28.637Z,54.70
2017-08-24T11:27:56.776Z,55.80
2017-08-24T11:30:24.901Z,55.50
2017-08-24T11:32:53.067Z,56.40
2017-08-24T11:35:21.198Z,56.40
2017-08-24T11:37:49.361Z,57.10
2017-08-24T11:40:17.489Z,56.90
2017-08-24T11:42:45.661Z,57.20
2017-08-24T11:45:13.801Z,58.00
2017-08-24T11:47:41.930Z,57.20
2017-08-24T11:50:10.093Z,57.10
2017-08-24T11:52:38.231Z,57.30
2017-08-24T11:55:06.402Z,57.20
2017-08-24T11:57:34.535Z,56.80
2017-08-24T12:00:02.708Z,57.30
2017-08-24T12:02:30.847Z,57.70
2017-08-24T12:04:59.026Z,58.20
2017-08-24T12:07:27.159Z,58.10
2017-08-24T12:09:55.339Z,57.80
2017-08-24T12:12:23.483Z,57.00
2017-08-24T12:14:51.624Z,57.70
2017-08-24T12:17:19.791Z,58.20
2017-08-24T12:19:47.931Z,58.60
2017-08-24T12:22:16.124Z,58.30
2017-08-24T12:24:44.298Z,58.50
2017-08-24T12:27:12.420Z,58.60
2017-08-24T12:29:40.590Z,59.20
2017-08-24T12:32:08.755Z,59.10
2017-08-24T12:34:36.884Z,59.20
2017-08-24T12:37:05.067Z,59.20
2017-08-24T12:39:33.220Z,59.30
2017-08-24T12:42:01.364Z,59.20
2017-08-24T12:44:29.515Z,58.80
2017-08-24T12:46:57.831Z,59.20
2017-08-24T12:49:25.967Z,59.30
2017-08-24T12:51:54.146Z,60.00
2017-08-24T12:54:22.331Z,60.00
2017-08-24T12:56:50.454Z,60.00
2017-08-24T12:59:18.616Z,59.70
2017-08-24T13:01:47.647Z,59.60
2017-08-24T13:04:15.827Z,59.30
2017-08-24T13:06:43.989Z,58.90
2017-08-24T13:09:12.167Z,59.30
2017-08-24T13:11:40.298Z,59.70
2017-08-24T13:14:08.473Z,59.40
2017-08-24T13:16:36.613Z,59.20
2017-08-24T13:19:04.766Z,59.60
2017-08-24T13:21:33.048Z,59.60
2017-08-24T13:24:01.200Z,59.60
2017-08-24T13:26:29.333Z,60.00
2017-08-24T13:28:57.515Z,60.20
2017-08-24T13:31:25.674Z,59.70
2017-08-24T13:33:53.826Z,60.30
2017-08-24T13:36:21.996Z,59.60
2017-08-24T13:38:50.130Z,58.90
2017-08-24T13:41:18.284Z,59.50
2017-08-24T13:43:46.447Z,59.20
2017-08-24T13:46:14.602Z,59.10
2017-08-24T13:48:42.774Z,58.50
2017-08-24T13:51:10.945Z,57.60
2017-08-24T13:53:39.082Z,57.20
2017-08-24T13:56:07.259Z,57.50
2017-08-24T13:58:35.418Z,57.90
2017-08-24T14:01:03.578Z,58.60
2017-08-24T14:03:31.744Z,58.20
2017-08-24T14:05:59.929Z,57.50
2017-08-24T14:08:28.062Z,55.60
2017-08-24T14:10:56.231Z,56.40
2017-08-24T14:13:24.390Z,56.70
2017-08-24T14:15:52.537Z,56.90
2017-08-24T14:18:20.695Z,56.90
2017-08-24T14:20:48.855Z,57.00
2017-08-24T14:23:17.009Z,55.90
2017-08-24T14:25:45.190Z,56.20
2017-08-24T14:28:13.352Z,56.00
2017-08-24T14:30:41.498Z,56.20
2017-08-24T14:33:09.666Z,55.60
2017-08-24T14:35:37.856Z,55.50
2017-08-24T14:38:05.991Z,55.50
2017-08-24T14:40:34.167Z,55.20
2017-08-24T14:43:02.361Z,55.20
2017-08-24T14:45:30.502Z,55.20
2017-08-24T14:47:58.680Z,53.90
2017-08-24T14:50:26.849Z,53.70
2017-08-24T14:52:54.998Z,53.80
2017-08-24T14:55:23.158Z,53.60
2017-08-24T14:57:51.335Z,53.10
2017-08-24T15:00:19.488Z,53.60
2017-08-24T15:02:47.663Z,53.70
2017-08-24T15:05:15.867Z,54.30
2017-08-24T15:07:44.007Z,54.80
2017-08-24T15:10:12.156Z,54.10
2017-08-24T15:12:40.926Z,54.60
2017-08-24T15:15:09.077Z,54.40
2017-08-24T15:17:37.259Z,54.80
2017-08-24T15:20:05.420Z,54.50
2017-08-24T15:22:33.554Z,54.80
2017-08-24T15:25:01.719Z,55.20
2017-08-24T15:27:29.868Z,55.50
2017-08-24T15:29:58.012Z,55.40
2017-08-24T15:32:26.186Z,54.40
2017-08-24T15:34:54.362Z,54.80
2017-08-24T15:37:22.507Z,55.60
2017-08-24T15:39:50.665Z,56.50
2017-08-24T15:42:18.804Z,55.80
2017-08-24T15:44:46.974Z,55.60
2017-08-24T15:47:15.123Z,55.20
2017-08-24T15:49:43.292Z,54.80
2017-08-24T15:54:43.703Z,53.40
2017-08-24T15:57:11.877Z,53.30
2017-08-24T15:59:40.023Z,53.60
2017-08-24T16:02:08.185Z,54.00
2017-08-24T16:04:36.333Z,53.80
2017-08-24T16:07:04.498Z,54.00
2017-08-24T16:09:32.646Z,54.80
2017-08-24T16:12:00.821Z,55.80
2017-08-24T16:14:28.948Z,56.20
2017-08-24T16:17:01.937Z,56.70
2017-08-24T16:19:30.078Z,56.90
2017-08-24T16:21:58.229Z,57.10
2017-08-24T16:24:26.411Z,57.70
2017-08-24T16:26:54.573Z,59.30
2017-08-24T16:29:22.695Z,59.40
2017-08-24T16:31:50.877Z,58.80
2017-08-24T16:34:19.014Z,58.60
2017-08-24T16:36:47.144Z,58.50
2017-08-24T16:39:15.414Z,58.90
2017-08-24T16:41:43.577Z,58.70
2017-08-24T16:44:11.720Z,59.50
2017-08-24T16:46:39.882Z,59.80
2017-08-24T16:49:08.021Z,60.10
2017-08-24T16:51:36.164Z,60.00
2017-08-24T16:54:04.335Z,59.80
2017-08-24T16:56:32.483Z,59.60
2017-08-24T16:59:00.617Z,59.10
2017-08-24T17:01:28.790Z,59.40
2017-08-24T17:03:56.928Z,60.00
2017-08-24T17:06:25.171Z,59.80
2017-08-24T17:08:53.339Z,60.30
2017-08-24T17:11:21.462Z,60.80
2017-08-24T17:13:49.622Z,61.00
2017-08-24T17:16:17.805Z,61.10
2017-08-24T17:18:45.942Z,61.50
2017-08-24T17:21:14.076Z,62.00
2017-08-24T17:23:42.235Z,62.20
2017-08-24T17:26:10.370Z,62.90
2017-08-24T17:28:38.541Z,63.10
2017-08-24T17:31:06.702Z,63.60
2017-08-24T17:33:34.843Z,63.60
2017-08-24T17:36:02.969Z,64.00
2017-08-24T17:38:31.131Z,63.90
2017-08-24T17:40:59.271Z,63.90
2017-08-24T17:43:27.547Z,64.90
2017-08-24T17:45:55.695Z,65.00
2017-08-24T17:48:23.821Z,65.00
2017-08-24T17:50:51.994Z,64.90
2017-08-24T17:53:20.129Z,65.40
2017-08-24T17:55:48.296Z,65.70
2017-08-24T17:58:16.533Z,65.80
2017-08-24T18:00:44.696Z,66.40
2017-08-24T18:03:12.824Z,66.90
2017-08-24T18:05:40.972Z,66.80
2017-08-24T18:08:09.143Z,66.50
2017-08-24T18:10:37.273Z,66.20
2017-08-24T18:13:05.448Z,66.50
2017-08-24T18:15:33.584Z,66.70
2017-08-24T18:18:01.744Z,67.20
2017-08-24T18:20:29.883Z,67.50
2017-08-24T18:22:58.061Z,67.70
2017-08-24T18:25:26.188Z,68.20
2017-08-24T18:27:54.343Z,68.50
2017-08-24T18:30:22.523Z,68.00
2017-08-24T18:32:50.655Z,68.50
2017-08-24T18:35:18.813Z,68.60
2017-08-24T18:37:46.946Z,68.80
2017-08-24T18:40:15.109Z,68.60
2017-08-24T18:42:43.243Z,68.80
2017-08-24T18:45:11.389Z,67.10
2017-08-24T18:47:39.572Z,66.20
2017-08-24T18:50:07.714Z,66.70
2017-08-24T18:52:35.885Z,66.20
2017-08-24T18:55:04.024Z,66.20
2017-08-24T18:57:32.201Z,65.90
2017-08-24T19:00:00.402Z,66.00
2017-08-24T19:02:28.595Z,65.90
2017-08-24T19:04:56.736Z,65.80
2017-08-24T19:07:24.906Z,68.00
2017-08-24T19:09:53.035Z,69.40
2017-08-24T19:12:21.172Z,69.80
2017-08-24T19:14:49.350Z,70.60
2017-08-24T19:17:17.505Z,71.60
2017-08-24T19:19:45.699Z,72.50
2017-08-24T19:22:13.831Z,73.40
2017-08-24T19:24:41.974Z,74.60
2017-08-24T19:27:10.149Z,74.10
2017-08-24T19:29:38.287Z,74.90
2017-08-24T19:32:06.468Z,75.30
2017-08-24T19:34:34.610Z,75.70
2017-08-24T19:37:02.794Z,76.10
2017-08-24T19:39:30.961Z,78.00
2017-08-24T19:41:59.098Z,79.70
2017-08-24T19:44:27.258Z,80.10
2017-08-24T19:46:55.394Z,80.60
2017-08-24T19:49:23.553Z,81.80
2017-08-24T19:51:51.712Z,82.50
2017-08-24T19:54:20.029Z,83.40
2017-08-24T19:56:48.203Z,83.80
2017-08-24T19:59:16.363Z,84.20
2017-08-24T20:01:44.535Z,84.60
2017-08-24T20:04:12.671Z,84.80
2017-08-24T20:06:40.829Z,85.10
2017-08-24T20:09:08.985Z,85.10
2017-08-24T20:11:37.146Z,85.00
2017-08-24T20:14:05.308Z,85.10
2017-08-24T20:16:33.467Z,85.60
2017-08-24T20:19:01.598Z,85.80
2017-08-24T20:21:29.768Z,86.00
2017-08-24T20:23:57.904Z,86.00
2017-08-24T20:26:26.083Z,85.80
2017-08-24T20:28:54.215Z,86.30
2017-08-24T20:31:22.346Z,86.00
2017-08-24T20:33:50.507Z,85.60
2017-08-24T20:36:18.633Z,85.50
2017-08-24T20:38:46.793Z,85.10
2017-08-24T20:41:14.916Z,84.60
2017-08-24T20:43:43.096Z,84.50
2017-08-24T20:46:11.221Z,84.60
2017-08-24T20:48:39.369Z,84.60
2017-08-24T20:51:07.532Z,84.20
2017-08-24T20:53:35.667Z,84.50
2017-08-24T20:56:03.901Z,83.90
2017-08-24T20:58:32.033Z,84.30
2017-08-24T21:01:00.235Z,84.80
2017-08-24T21:03:28.365Z,83.90
2017-08-24T21:05:56.497Z,84.30
2017-08-24T21:08:24.691Z,84.30
2017-08-24T21:10:52.819Z,85.40
2017-08-24T21:13:20.994Z,84.90
2017-08-24T21:15:49.125Z,84.90
2017-08-24T21:18:17.389Z,85.00
2017-08-24T21:20:45.517Z,84.80
2017-08-24T21:23:13.655Z,85.00
2017-08-24T21:25:41.819Z,84.40
2017-08-24T21:28:09.942Z,84.40
2017-08-24T21:30:38.217Z,84.60
2017-08-24T21:33:06.357Z,84.10
2017-08-24T21:35:34.502Z,84.60
2017-08-24T21:38:02.654Z,84.20
2017-08-24T21:40:30.785Z,84.10
2017-08-24T21:42:59.818Z,83.90
2017-08-24T21:45:27.965Z,84.40
2017-08-24T21:47:56.088Z,84.00
2017-08-24T21:50:24.251Z,84.60
2017-08-24T21:52:52.582Z,84.50
2017-08-24T21:55:20.748Z,84.10
2017-08-24T21:57:48.874Z,84.10
2017-08-24T22:00:17.070Z,84.70
2017-08-24T22:02:45.190Z,85.30
2017-08-24T22:05:13.322Z,85.90
2017-08-24T22:07:41.493Z,86.30
2017-08-24T22:10:09.624Z,86.50
2017-08-24T22:12:37.780Z,85.60
2017-08-24T22:15:05.905Z,86.20
2017-08-24T22:17:34.075Z,86.50
2017-08-24T22:20:02.197Z,86.50
2017-08-24T22:22:30.321Z,86.60
2017-08-24T22:24:58.473Z,86.40
2017-08-24T22:27:26.601Z,87.20
2017-08-24T22:29:54.757Z,86.40
2017-08-24T22:32:22.902Z,86.40
2017-08-24T22:34:51.068Z,86.40
2017-08-24T22:37:19.203Z,86.40
2017-08-24T22:39:47.328Z,86.30
2017-08-24T22:42:15.480Z,86.30
2017-08-24T22:44:43.617Z,86.40
2017-08-24T22:47:11.792Z,86.40
2017-08-24T22:49:39.938Z,86.50
2017-08-24T22:52:08.211Z,86.30
2017-08-24T22:54:41.879Z,86.50
2017-08-24T22:57:15.531Z,86.50
2017-08-24T22:59:49.195Z,86.50
2017-08-24T23:02:23.031Z,86.50
2017-08-24T23:04:51.186Z,86.60
2017-08-24T23:07:19.345Z,86.70
2017-08-24T23:09:47.537Z,86.80
2017-08-24T23:12:15.670Z,87.00
2017-08-24T23:14:43.829Z,87.00
2017-08-24T23:17:11.949Z,87.20
2017-08-24T23:19:40.099Z,87.00
2017-08-24T23:22:08.265Z,87.00
2017-08-24T23:24:36.407Z,87.00
2017-08-24T23:27:04.574Z,86.90
2017-08-24T23:29:32.719Z,87.10
2017-08-24T23:32:00.891Z,87.10
2017-08-24T23:34:29.018Z,87.10
2017-08-24T23:36:57.332Z,87.10
2017-08-24T23:39:25.465Z,87.20
2017-08-24T23:41:53.597Z,87.20
2017-08-24T23:44:21.746Z,87.20
2017-08-24T23:46:49.876Z,87.30
2017-08-24T23:49:18.033Z,87.30
2017-08-24T23:51:46.165Z,87.30
2017-08-24T23:54:14.335Z,87.50
2017-08-24T23:56:42.452Z,87.60
2017-08-24T23:59:10.587Z,87.60
